createdAt,value
2019-04-16T00:02:21.874Z,100524.74
2019-04-16T00:04:56.714Z,100525.94
2019-04-16T00:07:35.799Z,100517.86
2019-04-16T00:10:08.411Z,100523.69
2019-04-16T00:12:50.156Z,100520.50
2019-04-16T00:15:21.709Z,100519.48
2019-04-16T00:17:53.138Z,100519.00
2019-04-16T00:20:28.160Z,100515.84
2019-04-16T00:22:59.449Z,100510.88
2019-04-16T00:25:31.913Z,100510.38
2019-04-16T00:28:03.307Z,100513.94
2019-04-16T00:30:35.794Z,100508.73
2019-04-16T00:33:10.556Z,100504.75
2019-04-16T00:35:40.981Z,100505.64
2019-04-16T00:38:12.404Z,100508.21
2019-04-16T00:40:43.746Z,100499.23
2019-04-16T00:43:15.175Z,100502.29
2019-04-16T00:45:49.821Z,100492.06
2019-04-16T00:48:21.091Z,100492.84
2019-04-16T00:50:52.583Z,100488.84
2019-04-16T00:53:23.949Z,100491.47
2019-04-16T00:55:55.277Z,100495.48
2019-04-16T00:58:26.619Z,100487.45
2019-04-16T01:00:58.119Z,100488.31
2019-04-16T01:03:29.466Z,100484.23
2019-04-16T01:06:00.855Z,100483.08
2019-04-16T01:08:32.364Z,100479.42
2019-04-16T01:11:03.746Z,100477.61
2019-04-16T01:13:35.280Z,100476.30
2019-04-16T01:16:06.604Z,100471.03
2019-04-16T01:18:38.849Z,100469.97
2019-04-16T01:21:13.782Z,100471.67
2019-04-16T01:23:48.383Z,100477.40
2019-04-16T01:26:16.975Z,100475.66
2019-04-16T01:28:55.808Z,100476.44
2019-04-16T01:31:33.012Z,100468.98
2019-04-16T01:34:15.256Z,100462.36
2019-04-16T01:36:47.590Z,100460.52
2019-04-16T01:39:35.753Z,100461.38
2019-04-16T01:42:08.704Z,100462.16
2019-04-16T01:44:40.058Z,100452.45
2019-04-16T01:47:11.524Z,100459.38
2019-04-16T01:49:42.949Z,100453.52
2019-04-16T01:52:18.691Z,100457.85
2019-04-16T01:54:47.457Z,100453.87
2019-04-16T01:57:18.870Z,100457.67
2019-04-16T01:59:50.251Z,100458.41
2019-04-16T02:02:21.974Z,100457.91
2019-04-16T02:04:53.376Z,100457.80
2019-04-16T02:07:27.712Z,100462.98
2019-04-16T02:09:58.099Z,100470.63
2019-04-16T02:12:29.476Z,100466.69
2019-04-16T02:15:00.829Z,100468.51
2019-04-16T02:17:32.288Z,100468.89
2019-04-16T02:20:06.248Z,100468.94
2019-04-16T02:22:37.753Z,100469.78
2019-04-16T02:25:09.175Z,100463.75
2019-04-16T02:27:40.788Z,100461.20
2019-04-16T02:30:12.414Z,100463.45
2019-04-16T02:32:44.252Z,100463.75
2019-04-16T02:35:16.039Z,100464.25
2019-04-16T02:37:48.529Z,100462.48
2019-04-16T02:40:19.904Z,100460.70
2019-04-16T02:42:51.483Z,100462.48
2019-04-16T02:45:24.295Z,100462.52
2019-04-16T02:47:59.359Z,100463.75
2019-04-16T02:50:32.460Z,100460.63
2019-04-16T02:53:24.527Z,100457.07
2019-04-16T02:55:56.223Z,100466.16
2019-04-16T02:58:34.027Z,100464.64
2019-04-16T03:01:04.095Z,100459.77
2019-04-16T03:03:39.907Z,100463.75
2019-04-16T03:06:11.238Z,100461.55
2019-04-16T03:08:43.075Z,100462.36
2019-04-16T03:11:17.083Z,100462.28
2019-04-16T03:13:47.664Z,100454.75
2019-04-16T03:16:29.545Z,100456.99
2019-04-16T03:19:02.526Z,100460.09
2019-04-16T03:21:33.773Z,100458.77
2019-04-16T03:24:08.234Z,100461.44
2019-04-16T03:26:38.239Z,100466.19
2019-04-16T03:29:09.779Z,100465.27
2019-04-16T03:31:41.101Z,100463.56
2019-04-16T03:34:12.853Z,100456.11
2019-04-16T03:36:44.246Z,100459.08
2019-04-16T03:39:15.566Z,100457.37
2019-04-16T03:41:46.876Z,100451.66
2019-04-16T03:44:18.166Z,100453.83
2019-04-16T03:46:49.622Z,100453.41
2019-04-16T03:49:24.536Z,100452.09
2019-04-16T03:51:57.124Z,100452.52
2019-04-16T03:54:28.435Z,100451.16
2019-04-16T03:57:02.053Z,100444.13
2019-04-16T03:59:32.936Z,100446.25
2019-04-16T04:02:04.363Z,100448.41
2019-04-16T04:04:35.750Z,100443.97
2019-04-16T04:07:09.050Z,100445.97
2019-04-16T04:09:40.280Z,100441.52
2019-04-16T04:12:13.335Z,100445.81
2019-04-16T04:14:44.840Z,100444.50
2019-04-16T04:17:17.316Z,100449.70
2019-04-16T04:19:48.595Z,100453.65
2019-04-16T04:22:22.783Z,100449.20
2019-04-16T04:24:52.989Z,100454.41
2019-04-16T04:27:24.294Z,100457.42
2019-04-16T04:29:56.619Z,100464.45
2019-04-16T04:32:28.797Z,100467.72
2019-04-16T04:35:00.157Z,100475.89
2019-04-16T04:37:32.024Z,100476.18
2019-04-16T04:40:05.335Z,100479.09
2019-04-16T04:42:36.643Z,100473.64
2019-04-16T04:45:10.036Z,100481.68
2019-04-16T04:47:41.879Z,100477.78
2019-04-16T04:50:13.259Z,100484.48
2019-04-16T04:52:46.079Z,100487.19
2019-04-16T04:55:17.666Z,100494.17
2019-04-16T04:57:50.859Z,100493.20
2019-04-16T05:00:37.500Z,100487.70
2019-04-16T05:03:12.389Z,100489.43
2019-04-16T05:05:46.790Z,100489.01
2019-04-16T05:08:18.078Z,100484.56
2019-04-16T05:10:58.723Z,100485.08
2019-04-16T05:13:24.924Z,100488.59
2019-04-16T05:15:55.400Z,100495.15
2019-04-16T05:18:26.717Z,100492.86
2019-04-16T05:20:58.481Z,100503.89
2019-04-16T05:23:29.786Z,100505.02
2019-04-16T05:26:04.526Z,100515.52
2019-04-16T05:28:33.996Z,100511.91
2019-04-16T05:31:05.417Z,100517.91
2019-04-16T05:33:37.576Z,100524.93
2019-04-16T05:36:11.071Z,100536.22
2019-04-16T05:38:42.711Z,100535.14
2019-04-16T05:41:17.564Z,100537.00
2019-04-16T05:43:46.971Z,100534.71
2019-04-16T05:46:18.347Z,100535.78
2019-04-16T05:48:51.363Z,100542.69
2019-04-16T05:51:22.568Z,100542.49
2019-04-16T05:53:55.447Z,100547.12
2019-04-16T05:56:28.385Z,100553.47
2019-04-16T05:59:02.482Z,100556.19
2019-04-16T06:01:36.938Z,100562.08
2019-04-16T06:04:09.703Z,100553.48
2019-04-16T06:06:41.163Z,100560.30
2019-04-16T06:09:13.290Z,100561.89
2019-04-16T06:11:45.023Z,100565.87
2019-04-16T06:14:19.177Z,100556.34
2019-04-16T06:16:56.764Z,100554.72
2019-04-16T06:19:46.754Z,100556.78
2019-04-16T06:22:28.677Z,100560.12
2019-04-16T06:25:08.337Z,100563.52
2019-04-16T06:27:37.084Z,100556.33
2019-04-16T06:30:26.108Z,100549.55
2019-04-16T06:33:02.340Z,100551.91
2019-04-16T06:35:43.109Z,100543.38
2019-04-16T06:38:18.626Z,100545.62
2019-04-16T06:41:04.211Z,100544.11
2019-04-16T06:43:40.029Z,100537.59
2019-04-16T06:46:11.170Z,100534.64
2019-04-16T06:48:49.307Z,100534.88
2019-04-16T06:51:23.459Z,100527.20
2019-04-16T06:53:56.853Z,100522.55
2019-04-16T06:56:37.366Z,100521.91
2019-04-16T06:59:10.095Z,100524.81
2019-04-16T07:01:59.548Z,100529.50
2019-04-16T07:04:35.577Z,100528.41
2019-04-16T07:07:14.752Z,100546.23
2019-04-16T07:09:48.023Z,100556.08
2019-04-16T07:12:20.908Z,100551.40
2019-04-16T07:14:52.345Z,100550.21
2019-04-16T07:17:23.787Z,100548.22
2019-04-16T07:19:55.393Z,100548.88
2019-04-16T07:22:28.043Z,100550.80
2019-04-16T07:25:03.894Z,100550.91
2019-04-16T07:27:38.043Z,100548.91
2019-04-16T07:30:09.779Z,100546.88
2019-04-16T07:33:00.704Z,100544.83
2019-04-16T07:35:51.111Z,100537.88
2019-04-16T07:38:24.202Z,100540.23
2019-04-16T07:40:55.333Z,100536.39
2019-04-16T07:43:31.898Z,100543.77
2019-04-16T07:46:14.065Z,100552.66
2019-04-16T07:48:48.088Z,100542.27
2019-04-16T07:51:27.131Z,100544.14
2019-04-16T07:54:03.254Z,100543.01
2019-04-16T07:56:35.567Z,100539.59
2019-04-16T07:59:07.988Z,100531.38
2019-04-16T08:01:39.428Z,100535.92
2019-04-16T08:04:10.860Z,100532.84
2019-04-16T08:06:46.223Z,100536.45
2019-04-16T08:09:16.911Z,100537.44
2019-04-16T08:11:48.388Z,100540.55
2019-04-16T08:14:19.714Z,100540.15
2019-04-16T08:16:51.188Z,100538.86
2019-04-16T08:19:35.802Z,100532.33
2019-04-16T08:21:55.556Z,100531.16
2019-04-16T08:24:44.789Z,100534.30
2019-04-16T08:27:18.967Z,100535.23
2019-04-16T08:29:49.283Z,100531.28
2019-04-16T08:32:20.587Z,100534.44
2019-04-16T08:34:51.928Z,100529.17
2019-04-16T08:37:23.395Z,100530.98
2019-04-16T08:39:54.642Z,100534.10
2019-04-16T08:42:29.297Z,100532.81
2019-04-16T08:44:58.965Z,100531.94
2019-04-16T08:47:30.333Z,100535.05
2019-04-16T08:50:01.854Z,100531.52
2019-04-16T08:52:33.239Z,100529.76
2019-04-16T08:55:05.599Z,100532.45
2019-04-16T08:57:37.078Z,100534.26
2019-04-16T09:00:14.142Z,100532.92
2019-04-16T09:02:43.789Z,100532.91
2019-04-16T09:05:15.162Z,100534.67
2019-04-16T09:07:50.693Z,100529.31
2019-04-16T09:10:23.777Z,100528.39
2019-04-16T09:13:03.356Z,100531.46
2019-04-16T09:15:30.506Z,100530.08
2019-04-16T09:18:03.569Z,100523.38
2019-04-16T09:20:37.733Z,100527.34
2019-04-16T09:23:09.371Z,100531.75
2019-04-16T09:25:45.402Z,100527.77
2019-04-16T09:28:25.140Z,100525.09
2019-04-16T09:31:00.634Z,100521.41
2019-04-16T09:33:36.507Z,100521.80
2019-04-16T09:36:11.869Z,100517.38
2019-04-16T09:38:49.187Z,100516.34
2019-04-16T09:41:22.097Z,100521.52
2019-04-16T09:44:01.018Z,100509.52
2019-04-16T09:46:50.310Z,100510.34
2019-04-16T09:49:07.020Z,100507.59
2019-04-16T09:51:42.818Z,100516.34
2019-04-16T09:54:14.294Z,100509.23
2019-04-16T09:56:45.631Z,100505.18
2019-04-16T09:59:18.669Z,100504.72
2019-04-16T10:01:52.700Z,100507.66
2019-04-16T10:04:24.154Z,100501.74
2019-04-16T10:07:02.076Z,100505.97
2019-04-16T10:09:33.627Z,100511.30
2019-04-16T10:12:07.910Z,100507.09
2019-04-16T10:14:42.328Z,100511.33
2019-04-16T10:17:13.722Z,100507.77
2019-04-16T10:19:45.183Z,100509.57
2019-04-16T10:22:16.527Z,100506.49
2019-04-16T10:25:01.372Z,100496.75
2019-04-16T10:27:37.362Z,100496.47
2019-04-16T10:30:17.533Z,100498.03
2019-04-16T10:32:49.891Z,100504.14
2019-04-16T10:35:21.959Z,100500.07
2019-04-16T10:37:53.302Z,100498.16
2019-04-16T10:40:30.589Z,100493.17
2019-04-16T10:43:09.281Z,100492.81
2019-04-16T10:45:42.338Z,100495.14
2019-04-16T10:48:33.418Z,100494.55
2019-04-16T10:51:24.946Z,100491.25
2019-04-16T10:53:58.039Z,100484.30
2019-04-16T10:56:32.142Z,100488.02
2019-04-16T10:59:05.225Z,100484.47
2019-04-16T11:01:45.812Z,100481.19
2019-04-16T11:04:18.852Z,100476.30
2019-04-16T11:06:52.148Z,100479.16
2019-04-16T11:09:27.809Z,100474.39
2019-04-16T11:11:59.396Z,100472.35
2019-04-16T11:14:33.898Z,100473.07
2019-04-16T11:17:12.096Z,100475.09
2019-04-16T11:19:43.516Z,100473.27
2019-04-16T11:22:15.236Z,100469.53
2019-04-16T11:24:49.646Z,100471.64
2019-04-16T11:27:23.121Z,100465.23
2019-04-16T11:29:57.513Z,100467.94
2019-04-16T11:32:31.646Z,100464.39
2019-04-16T11:35:03.142Z,100459.14
2019-04-16T11:37:36.610Z,100462.09
2019-04-16T11:40:09.882Z,100459.20
2019-04-16T11:42:41.588Z,100459.09
2019-04-16T11:45:14.865Z,100452.66
2019-04-16T11:47:48.512Z,100458.68
2019-04-16T11:50:21.534Z,100454.59
2019-04-16T11:52:57.218Z,100457.22
2019-04-16T11:55:30.258Z,100455.88
2019-04-16T11:58:01.859Z,100455.79
2019-04-16T12:00:37.801Z,100459.73
2019-04-16T12:03:23.001Z,100458.60
2019-04-16T12:05:58.541Z,100458.11
2019-04-16T12:08:49.363Z,100462.23
2019-04-16T12:11:40.562Z,100465.45
2019-04-16T12:14:42.576Z,100462.80
2019-04-16T12:17:21.811Z,100467.97
2019-04-16T12:20:02.974Z,100473.50
2019-04-16T12:22:52.188Z,100474.34
2019-04-16T12:25:26.623Z,100472.70
2019-04-16T12:28:18.110Z,100467.32
2019-04-16T12:31:09.541Z,100470.42
2019-04-16T12:33:42.888Z,100479.45
2019-04-16T12:36:27.483Z,100481.19
2019-04-16T12:39:18.382Z,100485.52
2019-04-16T12:41:59.877Z,100489.41
2019-04-16T12:44:45.279Z,100489.36
2019-04-16T12:47:24.408Z,100496.04
2019-04-16T12:50:16.574Z,100490.05
2019-04-16T12:52:54.936Z,100494.59
2019-04-16T12:55:31.762Z,100495.69
2019-04-16T12:58:02.527Z,100494.25
2019-04-16T13:00:40.676Z,100498.25
2019-04-16T13:03:24.260Z,100491.17
2019-04-16T13:06:01.369Z,100489.83
2019-04-16T13:08:43.510Z,100495.50
2019-04-16T13:11:14.716Z,100486.81
2019-04-16T13:13:59.653Z,100492.94
2019-04-16T13:16:44.859Z,100490.50
2019-04-16T13:19:34.465Z,100486.80
2019-04-16T13:22:08.088Z,100481.02
2019-04-16T13:24:44.805Z,100489.22
2019-04-16T13:27:15.716Z,100486.27
2019-04-16T13:29:47.172Z,100479.03
2019-04-16T13:32:19.543Z,100485.66
2019-04-16T13:34:50.803Z,100478.91
2019-04-16T13:37:22.206Z,100480.70
2019-04-16T13:39:59.165Z,100480.34
2019-04-16T13:42:28.531Z,100478.21
2019-04-16T13:45:16.308Z,100478.24
2019-04-16T13:47:37.991Z,100477.33
2019-04-16T13:50:12.732Z,100477.41
2019-04-16T13:52:44.640Z,100483.52
2019-04-16T13:55:21.230Z,100474.83
2019-04-16T13:58:09.462Z,100476.85
2019-04-16T14:00:42.959Z,100473.02
2019-04-16T14:03:20.798Z,100470.83
2019-04-16T14:05:52.560Z,100475.30
2019-04-16T14:08:23.808Z,100471.40
2019-04-16T14:10:55.275Z,100467.06
2019-04-16T14:13:28.716Z,100470.21
2019-04-16T14:16:00.637Z,100463.37
2019-04-16T14:18:32.698Z,100468.62
2019-04-16T14:21:05.066Z,100464.12
2019-04-16T14:23:36.378Z,100468.20
2019-04-16T14:26:07.884Z,100458.31
2019-04-16T14:28:51.330Z,100460.27
2019-04-16T14:31:16.305Z,100461.91
2019-04-16T14:34:02.179Z,100459.56
2019-04-16T14:36:33.612Z,100459.87
2019-04-16T14:39:14.047Z,100458.75
2019-04-16T14:41:50.189Z,100456.53
2019-04-16T14:44:21.231Z,100460.98
2019-04-16T14:46:52.696Z,100462.72
2019-04-16T14:49:24.141Z,100468.44
2019-04-16T14:51:58.030Z,100460.72
2019-04-16T14:54:32.000Z,100462.28
2019-04-16T14:57:10.099Z,100459.98
2019-04-16T14:59:43.848Z,100455.70
2019-04-16T15:02:35.024Z,100459.98
2019-04-16T15:05:15.443Z,100461.97
2019-04-16T15:07:46.060Z,100454.61
2019-04-16T15:10:24.928Z,100461.08
2019-04-16T15:13:13.881Z,100460.34
2019-04-16T15:15:47.358Z,100462.09
2019-04-16T15:18:20.370Z,100461.88
2019-04-16T15:20:51.451Z,100467.06
2019-04-16T15:23:34.515Z,100459.06
2019-04-16T15:26:23.903Z,100462.98
2019-04-16T15:29:04.544Z,100459.88
2019-04-16T15:31:40.668Z,100465.02
2019-04-16T15:34:14.628Z,100466.85
2019-04-16T15:37:03.102Z,100465.09
2019-04-16T15:39:36.731Z,100463.92
2019-04-16T15:42:30.695Z,100464.45
2019-04-16T15:45:08.446Z,100460.08
2019-04-16T15:47:56.090Z,100464.84
2019-04-16T15:50:36.378Z,100466.14
2019-04-16T15:53:09.662Z,100462.09
2019-04-16T15:55:48.771Z,100463.56
2019-04-16T15:58:35.168Z,100467.81
2019-04-16T16:01:17.483Z,100461.61
2019-04-16T16:04:06.575Z,100464.48
2019-04-16T16:06:52.186Z,100464.81
2019-04-16T16:09:27.485Z,100469.25
2019-04-16T16:12:04.032Z,100473.49
2019-04-16T16:14:41.061Z,100470.98
2019-04-16T16:17:13.558Z,100471.40
2019-04-16T16:19:44.954Z,100477.14
2019-04-16T16:22:16.430Z,100475.31
2019-04-16T16:24:47.894Z,100474.27
2019-04-16T16:27:19.774Z,100481.95
2019-04-16T16:29:51.206Z,100491.28
2019-04-16T16:32:23.010Z,100485.99
2019-04-16T16:34:54.353Z,100485.57
2019-04-16T16:37:25.763Z,100488.73
2019-04-16T16:39:57.353Z,100494.17
2019-04-16T16:42:28.712Z,100492.89
2019-04-16T16:45:01.942Z,100492.48
2019-04-16T16:47:39.650Z,100497.55
2019-04-16T16:50:12.483Z,100501.06
2019-04-16T16:52:43.692Z,100507.08
2019-04-16T16:55:23.097Z,100509.00
2019-04-16T16:58:12.665Z,100509.52
2019-04-16T17:00:59.158Z,100510.95
2019-04-16T17:03:28.894Z,100513.63
2019-04-16T17:06:00.493Z,100506.68
2019-04-16T17:08:31.983Z,100510.77
2019-04-16T17:11:16.243Z,100514.84
2019-04-16T17:13:41.135Z,100517.66
2019-04-16T17:16:14.420Z,100516.45
2019-04-16T17:18:45.997Z,100519.20
2019-04-16T17:21:19.332Z,100517.16
2019-04-16T17:23:50.900Z,100524.32
2019-04-16T17:26:24.754Z,100522.22
2019-04-16T17:28:56.288Z,100526.81
2019-04-16T17:31:27.741Z,100528.72
2019-04-16T17:33:59.610Z,100536.76
2019-04-16T17:36:31.141Z,100538.13
2019-04-16T17:39:02.629Z,100538.55
2019-04-16T17:41:55.285Z,100542.58
2019-04-16T17:44:31.063Z,100548.87
2019-04-16T17:47:04.330Z,100554.28
2019-04-16T17:49:40.146Z,100553.91
2019-04-16T17:52:17.115Z,100557.52
2019-04-16T17:54:50.233Z,100557.97
2019-04-16T17:57:28.898Z,100557.58
2019-04-16T18:00:09.639Z,100559.80
2019-04-16T18:03:04.118Z,100569.61
2019-04-16T18:05:51.447Z,100574.58
2019-04-16T18:08:25.395Z,100576.37
2019-04-16T18:11:09.974Z,100583.08
2019-04-16T18:13:58.794Z,100583.60
2019-04-16T18:16:31.819Z,100592.50
2019-04-16T18:19:07.724Z,100600.98
2019-04-16T18:22:05.473Z,100608.67
2019-04-16T18:24:43.348Z,100607.86
2019-04-16T18:27:39.049Z,100615.45
2019-04-16T18:30:14.935Z,100620.44
2019-04-16T18:33:07.206Z,100619.59
2019-04-16T18:35:42.017Z,100626.25
2019-04-16T18:38:19.034Z,100635.59
2019-04-16T18:41:01.994Z,100633.83
2019-04-16T18:43:34.127Z,100635.17
2019-04-16T18:46:15.169Z,100645.81
2019-04-16T18:48:47.654Z,100649.80
2019-04-16T18:51:19.019Z,100658.67
2019-04-16T18:53:50.358Z,100658.22
2019-04-16T18:56:21.765Z,100657.78
2019-04-16T18:58:53.136Z,100671.51
2019-04-16T19:01:29.596Z,100670.17
2019-04-16T19:04:00.449Z,100678.14
2019-04-16T19:06:31.958Z,100678.13
2019-04-16T19:09:04.501Z,100683.43
2019-04-16T19:11:37.868Z,100689.62
2019-04-16T19:14:13.197Z,100686.52
2019-04-16T19:16:56.708Z,100698.89
2019-04-16T19:19:28.131Z,100701.50
2019-04-16T19:21:59.631Z,100701.04
2019-04-16T19:24:30.992Z,100703.25
2019-04-16T19:27:02.435Z,100709.88
2019-04-16T19:29:39.438Z,100712.09
2019-04-16T19:32:10.845Z,100711.22
2019-04-16T19:34:42.116Z,100715.20
2019-04-16T19:37:13.611Z,100719.17
2019-04-16T19:39:46.750Z,100727.58
2019-04-16T19:42:19.313Z,100726.20
2019-04-16T19:44:50.798Z,100727.97
2019-04-16T19:47:26.415Z,100732.83
2019-04-16T19:49:56.867Z,100743.42
2019-04-16T19:52:29.734Z,100741.64
2019-04-16T19:55:01.073Z,100746.05
2019-04-16T19:57:32.516Z,100753.55
2019-04-16T20:00:06.045Z,100748.69
2019-04-16T20:02:39.061Z,100752.65
2019-04-16T20:05:10.707Z,100757.94
2019-04-16T20:07:42.218Z,100754.80
2019-04-16T20:10:13.600Z,100751.64
2019-04-16T20:12:46.030Z,100760.47
2019-04-16T20:15:17.394Z,100763.11
2019-04-16T20:17:48.792Z,100763.05
2019-04-16T20:20:20.390Z,100772.30
2019-04-16T20:22:51.694Z,100766.56
2019-04-16T20:25:23.003Z,100769.66
2019-04-16T20:27:54.456Z,100767.00
2019-04-16T20:30:26.312Z,100768.31
2019-04-16T20:32:57.707Z,100766.09
2019-04-16T20:35:29.009Z,100767.87
2019-04-16T20:38:00.505Z,100765.66
2019-04-16T20:40:31.747Z,100762.10
2019-04-16T20:43:03.064Z,100754.12
2019-04-16T20:45:34.378Z,100754.55
2019-04-16T20:48:09.172Z,100759.42
2019-04-16T20:50:38.907Z,100750.59
2019-04-16T20:53:10.298Z,100750.17
2019-04-16T20:55:47.059Z,100751.92
2019-04-16T20:58:15.487Z,100746.61
2019-04-16T21:00:48.437Z,100752.37
2019-04-16T21:03:22.652Z,100744.88
2019-04-16T21:05:59.073Z,100746.66
2019-04-16T21:08:27.994Z,100745.77
2019-04-16T21:11:00.095Z,100748.00
2019-04-16T21:13:31.725Z,100747.55
2019-04-16T21:16:03.555Z,100752.85
2019-04-16T21:18:35.069Z,100748.83
2019-04-16T21:21:06.315Z,100754.11
2019-04-16T21:23:37.691Z,100755.89
2019-04-16T21:26:09.062Z,100761.20
2019-04-16T21:29:01.670Z,100754.16
2019-04-16T21:31:35.902Z,100755.94
2019-04-16T21:34:17.942Z,100758.55
2019-04-16T21:36:50.840Z,100760.33
2019-04-16T21:39:23.853Z,100760.77
2019-04-16T21:42:01.296Z,100759.41
2019-04-16T21:44:28.184Z,100761.63
2019-04-16T21:46:59.435Z,100771.70
2019-04-16T21:49:38.340Z,100757.09
2019-04-16T21:52:09.444Z,100754.41
2019-04-16T21:54:40.880Z,100761.89
2019-04-16T21:57:14.241Z,100766.72
2019-04-16T21:59:45.720Z,100764.08
2019-04-16T22:02:18.769Z,100758.31
2019-04-16T22:04:50.560Z,100762.29
2019-04-16T22:07:24.619Z,100757.02
2019-04-16T22:09:55.080Z,100760.12
2019-04-16T22:12:26.533Z,100764.09
2019-04-16T22:14:57.852Z,100767.74
2019-04-16T22:17:29.114Z,100766.03
2019-04-16T22:20:03.702Z,100770.49
2019-04-16T22:22:33.543Z,100771.82
2019-04-16T22:25:06.255Z,100773.06
2019-04-16T22:27:39.762Z,100770.37
2019-04-16T22:30:10.949Z,100773.88
2019-04-16T22:32:42.339Z,100780.50
2019-04-16T22:35:13.780Z,100777.31
2019-04-16T22:37:45.443Z,100774.58
2019-04-16T22:40:22.798Z,100778.09
2019-04-16T22:43:05.629Z,100781.64
2019-04-16T22:45:42.765Z,100776.80
2019-04-16T22:48:14.294Z,100781.66
2019-04-16T22:50:45.608Z,100785.67
2019-04-16T22:53:17.900Z,100783.42
2019-04-16T22:55:49.441Z,100787.39
2019-04-16T22:58:24.325Z,100786.48
2019-04-16T23:00:57.654Z,100790.87
2019-04-16T23:03:29.118Z,100793.53
2019-04-16T23:06:04.889Z,100796.17
2019-04-16T23:08:33.809Z,100807.59
2019-04-16T23:11:05.982Z,100800.42
2019-04-16T23:13:37.401Z,100805.17
2019-04-16T23:16:08.817Z,100800.72
2019-04-16T23:18:40.162Z,100805.55
2019-04-16T23:21:11.616Z,100806.85
2019-04-16T23:23:43.100Z,100805.05
2019-04-16T23:26:14.411Z,100815.13
2019-04-16T23:28:45.896Z,100812.91
2019-04-16T23:31:19.570Z,100810.67
2019-04-16T23:33:50.350Z,100800.48
2019-04-16T23:36:21.735Z,100807.08
2019-04-16T23:38:53.141Z,100816.72
2019-04-16T23:41:24.671Z,100820.67
2019-04-16T23:44:01.365Z,100819.36
2019-04-16T23:46:38.767Z,100819.80
2019-04-16T23:49:16.490Z,100821.95
2019-04-16T23:52:01.791Z,100819.28
2019-04-16T23:54:33.688Z,100820.55
2019-04-16T23:57:21.656Z,100828.93
2019-04-16T23:59:57.118Z,100821.44
